Time;durP1;ratioP1;P1;durP2;ratioP2;P2;SDS_P1;SDS_P2;PMS_P1;PMS_P2;Temp;Humidity;BMP_temperature;BMP_pressure;BME280_temperature;BME280_humidity;BME280_pressure;Samples;Min_cycle;Max_cycle;Signal;HPM_P1;HPM_P2
2022/01/26 00:06:48;;;;;;;58.83;36.72;;;;;;;2.53;64.33;100207.47;5092133;28;20039;-49
2022/01/26 00:09:14;;;;;;;65.00;37.95;;;;;;;2.60;63.81;100200.94;5091867;28;20103;-49
2022/01/26 00:11:41;;;;;;;67.53;42.30;;;;;;;2.52;63.42;100205.84;5091792;28;20020;-49
2022/01/26 00:14:11;;;;;;;65.30;41.72;;;;;;;2.43;63.69;100214.28;5090487;28;20036;-48
2022/01/26 00:16:40;;;;;;;78.95;51.63;;;;;;;2.49;64.10;100207.81;5091864;28;20039;-49
2022/01/26 00:19:09;;;;;;;72.38;46.47;;;;;;;2.64;64.16;100206.72;5091715;28;20024;-49
2022/01/26 00:21:39;;;;;;;80.60;54.08;;;;;;;3.13;63.91;100207.47;5091687;28;20024;-48
2022/01/26 00:24:24;;;;;;;105.43;71.07;;;;;;;3.30;63.29;100199.25;5091726;28;20031;-49
2022/01/26 00:29:31;;;;;;;56.10;39.35;;;;;;;3.96;62.85;100208.91;5091686;28;20028;-48
2022/01/26 00:40:18;;;;;;;74.72;47.83;;;;;;;4.91;59.58;100203.06;5091374;28;20063;-48
2022/01/26 00:42:46;;;;;;;75.53;49.67;;;;;;;5.01;59.93;100198.75;5093152;28;20103;-48
2022/01/26 00:45:12;;;;;;;90.45;52.65;;;;;;;5.33;59.61;100201.28;5095464;28;20024;-48
2022/01/26 00:47:38;;;;;;;633.60;500.98;;;;;;;5.49;59.25;100197.38;5095439;28;20023;-49
2022/01/26 00:50:09;;;;;;;231.45;184.05;;;;;;;5.37;59.12;100194.88;5094016;28;20028;-49
2022/01/26 00:52:40;;;;;;;218.90;163.07;;;;;;;5.39;59.39;100186.91;5095430;28;20036;-48
2022/01/26 00:55:12;;;;;;;109.32;68.47;;;;;;;5.45;59.01;100189.00;5093966;28;20452;-49
2022/01/26 00:57:38;;;;;;;69.97;46.78;;;;;;;5.46;59.05;100187.22;5095267;28;20116;-49
2022/01/26 01:00:13;;;;;;;97.90;57.20;;;;;;;5.43;58.60;100193.50;5095232;28;20059;-48
2022/01/26 01:02:39;;;;;;;132.57;54.90;;;;;;;5.29;58.26;100192.09;5095129;28;20405;-49
2022/01/26 01:05:14;;;;;;;82.68;49.15;;;;;;;5.28;59.09;100189.59;5095002;28;20031;-47
2022/01/26 01:07:41;;;;;;;67.15;46.20;;;;;;;5.15;58.01;100197.59;5095138;28;20031;-48
2022/01/26 01:10:07;;;;;;;82.75;48.95;;;;;;;4.79;58.26;100195.31;5095214;28;20036;-48
2022/01/26 01:12:39;;;;;;;90.45;50.80;;;;;;;4.82;59.00;100199.44;5093626;28;20039;-49
2022/01/26 01:15:06;;;;;;;73.63;44.65;;;;;;;4.95;58.37;100200.09;5094888;28;20054;-48
2022/01/26 01:17:38;;;;;;;70.85;42.20;;;;;;;5.09;58.74;100203.31;5094851;28;20016;-48
2022/01/26 01:28:27;;;;;;;101.63;58.92;;;;;;;5.55;57.56;100208.09;5094753;28;20038;-49
2022/01/26 01:31:01;;;;;;;107.75;57.05;;;;;;;5.06;57.40;100209.59;5093380;28;20039;-48
2022/01/26 01:33:33;;;;;;;135.50;79.95;;;;;;;4.68;58.74;100213.56;5094619;28;20405;-48
2022/01/26 01:36:00;;;;;;;111.50;57.33;;;;;;;4.72;59.42;100214.16;5094544;28;20029;-49
2022/01/26 01:38:28;;;;;;;104.00;55.60;;;;;;;4.97;59.98;100219.00;5093156;28;20048;-49
2022/01/26 01:40:55;;;;;;;120.05;56.42;;;;;;;5.23;59.90;100221.19;5094256;28;20048;-48
2022/01/26 01:43:22;;;;;;;125.82;57.85;;;;;;;5.38;59.52;100216.50;5094340;28;20023;-48
2022/01/26 01:45:51;;;;;;;179.35;86.20;;;;;;;5.38;59.26;100229.53;5094341;28;20036;-49
2022/01/26 01:48:23;;;;;;;157.50;58.17;;;;;;;5.31;60.45;100220.56;5094288;28;20019;-48
2022/01/26 01:50:51;;;;;;;283.85;58.08;;;;;;;5.34;59.85;100223.75;5094336;28;20024;-49
2022/01/26 01:53:18;;;;;;;117.45;58.60;;;;;;;5.16;60.14;100231.31;5093538;28;20061;-48
2022/01/26 01:55:50;;;;;;;197.70;59.08;;;;;;;5.15;60.43;100234.03;5092210;28;20060;-48
2022/01/26 01:58:18;;;;;;;139.75;63.08;;;;;;;5.28;60.98;100239.88;5094164;28;20025;-48
2022/01/26 02:00:44;;;;;;;110.88;59.45;;;;;;;5.17;60.83;100234.72;5092693;28;20051;-48
2022/01/26 02:03:10;;;;;;;246.75;62.50;;;;;;;4.98;60.89;100248.44;5092611;28;20047;-47
2022/01/26 02:05:36;;;;;;;124.82;55.33;;;;;;;4.96;61.42;100248.56;5092620;28;20454;-48
2022/01/26 02:08:03;;;;;;;160.45;54.83;;;;;;;5.02;61.17;100249.84;5093859;28;20024;-48
2022/01/26 02:10:30;;;;;;;209.02;58.70;;;;;;;4.96;60.66;100242.53;5093808;28;20050;-48
2022/01/26 02:13:01;;;;;;;164.13;60.28;;;;;;;4.93;61.09;100243.63;5093829;28;20028;-49
2022/01/26 02:15:42;;;;;;;138.45;56.17;;;;;;;4.92;61.31;100249.75;5093768;28;20481;-48
2022/01/26 02:18:19;;;;;;;106.40;56.40;;;;;;;5.00;61.42;100249.97;5093694;28;20109;-48
2022/01/26 02:21:10;;;;;;;104.75;55.92;;;;;;;4.96;62.18;100252.94;5093688;28;20024;-48
2022/01/26 02:56:22;;;;;;;142.15;57.28;;;;;;;4.77;64.49;100231.03;5092962;28;20570;-48
2022/01/26 02:59:05;;;;;;;117.43;56.45;;;;;;;4.47;64.33;100233.50;5092952;28;20028;-46
2022/01/26 03:04:35;;;;;;;122.22;55.22;;;;;;;4.38;66.06;100230.66;5092818;28;20048;-49
2022/01/26 03:09:31;;;;;;;107.38;58.67;;;;;;;4.36;65.36;100223.94;5092672;28;20413;-48
2022/01/26 03:11:58;;;;;;;109.35;58.80;;;;;;;4.19;66.30;100226.13;5092816;28;20440;-48
2022/01/26 03:17:07;;;;;;;119.15;58.13;;;;;;;3.75;65.41;100225.22;5092650;28;20028;-48
2022/01/26 03:19:46;;;;;;;99.82;52.00;;;;;;;3.55;66.74;100218.13;5092621;28;20028;-47
2022/01/26 03:33:08;;;;;;;103.20;54.70;;;;;;;2.18;69.26;100225.56;5092434;28;20032;-47
2022/01/26 03:35:44;;;;;;;194.73;59.22;;;;;;;2.15;68.72;100221.44;5092136;28;20060;-47
2022/01/26 03:38:22;;;;;;;120.63;56.17;;;;;;;1.92;68.90;100222.22;5092322;28;20024;-48
2022/01/26 03:40:56;;;;;;;113.28;57.25;;;;;;;1.80;69.56;100222.13;5090756;28;20048;-47
2022/01/26 03:43:22;;;;;;;93.93;56.07;;;;;;;1.70;69.56;100223.69;5090870;28;20383;-47
2022/01/26 03:45:48;;;;;;;99.65;52.03;;;;;;;1.68;69.73;100222.97;5092156;28;20038;-47
2022/01/26 03:48:14;;;;;;;140.55;54.72;;;;;;;1.60;69.25;100223.47;5092107;28;20482;-48
2022/01/26 03:50:39;;;;;;;148.02;50.30;;;;;;;1.49;69.82;100231.16;5092049;28;20066;-48
2022/01/26 03:53:05;;;;;;;129.52;53.45;;;;;;;1.62;70.21;100223.38;5092088;28;20525;-48
2022/01/26 03:55:31;;;;;;;128.23;49.95;;;;;;;1.65;69.12;100223.19;5092019;28;20093;-47
2022/01/26 03:57:56;;;;;;;164.80;52.90;;;;;;;1.68;69.10;100220.38;5090695;28;20162;-47
2022/01/26 04:00:22;;;;;;;81.97;48.90;;;;;;;1.51;68.96;100220.69;5091887;28;20024;-47
2022/01/26 04:02:48;;;;;;;91.82;59.90;;;;;;;1.69;69.39;100223.78;5091892;28;20024;-47
2022/01/26 04:05:14;;;;;;;117.13;51.13;;;;;;;1.63;68.06;100219.88;5090475;28;20031;-47
2022/01/26 04:07:42;;;;;;;76.90;48.38;;;;;;;1.45;68.73;100218.50;5090600;28;20442;-48
2022/01/26 04:10:43;;;;;;;82.88;47.72;;;;;;;1.53;69.75;100221.41;5091789;28;20046;-48
2022/01/26 04:12:54;;;;;;;111.72;48.95;;;;;;;1.87;68.62;100214.78;5091312;28;20133;-48
2022/01/26 04:15:26;;;;;;;150.95;51.03;;;;;;;1.74;67.85;100216.53;5091807;28;20075;-48
2022/01/26 04:17:52;;;;;;;72.85;45.67;;;;;;;1.63;68.15;100214.69;5093729;28;20020;-47
2022/01/26 04:20:18;;;;;;;72.97;44.83;;;;;;;1.64;68.13;100211.16;5094644;28;20417;-48
2022/01/26 04:22:54;;;;;;;86.45;46.47;;;;;;;1.64;68.14;100216.34;5094609;28;20020;-46
2022/01/26 04:25:23;;;;;;;;;;;;;;;1.68;67.91;100217.78;5096310;28;20024;-47
2022/01/26 04:27:53;;;;;;;115.15;47.10;;;;;;;1.99;68.25;100213.06;5095787;28;19957;-48
2022/01/26 04:30:19;;;;;;;82.97;47.63;;;;;;;2.16;67.66;100217.91;5095774;28;20020;-47
2022/01/26 04:32:44;;;;;;;70.65;43.63;;;;;;;2.36;67.22;100213.88;5094429;28;20024;-48
2022/01/26 04:35:11;;;;;;;97.93;46.38;;;;;;;2.28;66.26;100218.78;5095653;28;20023;-47
2022/01/26 04:40:13;;;;;;;88.50;49.72;;;;;;;2.31;68.26;100220.34;5095383;28;20052;-48
2022/01/26 04:45:08;;;;;;;113.45;47.83;;;;;;;2.71;65.37;100218.28;5095383;28;20027;-48
2022/01/26 04:47:35;;;;;;;76.43;45.28;;;;;;;2.60;66.00;100220.84;5095492;28;20048;-47
2022/01/26 04:50:02;;;;;;;79.10;48.35;;;;;;;2.53;66.25;100219.63;5095434;28;20016;-48
2022/01/26 04:52:28;;;;;;;120.05;50.33;;;;;;;2.23;65.86;100218.28;5095379;28;20017;-50
2022/01/26 04:54:54;;;;;;;204.88;52.92;;;;;;;2.07;66.73;100209.94;5095297;28;20402;-50
2022/01/26 04:57:20;;;;;;;201.60;56.22;;;;;;;2.05;66.55;100220.41;5093914;28;20043;-50
2022/01/26 04:59:45;;;;;;;97.65;52.00;;;;;;;2.09;67.42;100208.88;5095259;28;20020;-48
2022/01/26 05:02:11;;;;;;;152.68;53.75;;;;;;;2.21;67.03;100212.38;5095094;28;20029;-49
2022/01/26 05:04:37;;;;;;;102.00;59.85;;;;;;;2.26;67.02;100215.47;5095072;28;20086;-48
2022/01/26 05:07:03;;;;;;;88.25;47.70;;;;;;;2.54;67.46;100218.69;5095027;28;20056;-48
2022/01/26 05:09:28;;;;;;;112.35;51.92;;;;;;;2.91;66.91;100214.22;5095014;28;20024;-48
2022/01/26 05:11:55;;;;;;;91.75;47.60;;;;;;;3.24;66.56;100210.09;5094998;28;20016;-48
2022/01/26 05:14:22;;;;;;;94.30;51.65;;;;;;;3.35;65.24;100207.50;5093622;28;20489;-47
2022/01/26 05:16:47;;;;;;;94.68;45.70;;;;;;;3.53;65.49;100214.84;5094848;28;20028;-48
2022/01/26 05:19:13;;;;;;;99.70;49.97;;;;;;;3.76;65.50;100208.69;5093521;28;20024;-48
2022/01/26 05:21:41;;;;;;;85.53;50.33;;;;;;;3.89;65.48;100208.56;5094819;28;20099;-49
2022/01/26 05:24:07;;;;;;;100.45;58.30;;;;;;;3.99;64.94;100211.28;5094734;28;20028;-47
2022/01/26 05:26:32;;;;;;;143.07;44.00;;;;;;;3.95;64.54;100215.06;5093391;28;20525;-49
2022/01/26 05:28:58;;;;;;;92.13;62.67;;;;;;;3.87;64.04;100218.25;5094367;28;20038;-47
2022/01/26 05:31:24;;;;;;;97.13;62.65;;;;;;;3.69;64.25;100220.50;5094529;28;20024;-48
2022/01/26 05:33:50;;;;;;;103.10;61.63;;;;;;;3.50;64.80;100218.50;5093274;28;20097;-48
2022/01/26 05:36:16;;;;;;;69.55;44.95;;;;;;;3.50;65.30;100213.31;5094555;28;20096;-48
2022/01/26 05:38:42;;;;;;;70.63;47.05;;;;;;;3.56;64.92;100206.78;5094474;28;20106;-48
2022/01/26 05:41:09;;;;;;;65.00;43.08;;;;;;;3.53;64.57;100209.63;5094218;28;20076;-49
2022/01/26 05:43:34;;;;;;;64.25;41.85;;;;;;;3.46;64.55;100208.44;5094332;28;20017;-48
2022/01/26 05:46:07;;;;;;;59.20;35.38;;;;;;;3.57;64.36;100211.06;5094354;28;20046;-48
2022/01/26 05:48:34;;;;;;;70.32;42.53;;;;;;;3.52;64.18;100213.16;5094411;28;20028;-49
2022/01/26 05:51:07;;;;;;;66.70;42.67;;;;;;;3.50;63.94;100222.84;5094226;28;20046;-48
2022/01/26 05:53:37;;;;;;;71.38;40.88;;;;;;;3.55;64.09;100216.34;5094325;28;20401;-48
2022/01/26 05:56:04;;;;;;;77.80;39.40;;;;;;;3.69;64.43;100220.50;5094182;28;20471;-48
2022/01/26 05:58:30;;;;;;;65.63;40.00;;;;;;;3.72;64.16;100225.47;5092825;28;20110;-48
2022/01/26 06:00:58;;;;;;;210.45;41.22;;;;;;;3.76;63.79;100226.03;5094045;28;20027;-49
2022/01/26 06:03:24;;;;;;;69.70;41.08;;;;;;;3.53;64.09;100220.03;5093982;28;20548;-48
2022/01/26 06:05:50;;;;;;;262.15;162.85;;;;;;;3.59;64.07;100224.75;5093992;28;20024;-48
2022/01/26 06:08:16;;;;;;;73.40;47.75;;;;;;;3.70;64.00;100216.13;5092582;28;20024;-49
2022/01/26 06:10:42;;;;;;;103.18;72.97;;;;;;;3.74;64.40;100217.53;5093826;28;20043;-48
2022/01/26 06:13:07;;;;;;;74.93;50.00;;;;;;;3.68;64.35;100218.84;5093839;28;20035;-48
2022/01/26 06:15:33;;;;;;;53.90;37.35;;;;;;;3.63;64.13;100225.34;5092453;28;20110;-49
2022/01/26 06:17:59;;;;;;;55.80;35.13;;;;;;;3.64;63.92;100227.78;5093643;28;20099;-47
2022/01/26 06:20:25;;;;;;;55.10;36.55;;;;;;;3.63;63.34;100227.94;5093668;28;20028;-48
2022/01/26 06:22:50;;;;;;;65.18;37.47;;;;;;;3.60;63.60;100235.03;5093558;28;20081;-47
2022/01/26 06:25:16;;;;;;;55.90;35.67;;;;;;;3.68;63.54;100236.19;5092179;28;20510;-48
2022/01/26 06:27:44;;;;;;;64.18;36.60;;;;;;;3.66;62.30;100232.88;5092261;28;20020;-47
2022/01/26 06:30:11;;;;;;;50.35;34.63;;;;;;;3.48;62.65;100229.91;5093428;28;20051;-47
2022/01/26 06:32:38;;;;;;;70.63;35.25;;;;;;;3.33;62.38;100234.50;5092131;28;20024;-48
2022/01/26 06:35:07;;;;;;;55.65;32.95;;;;;;;3.18;62.84;100228.72;5092000;28;20036;-48
2022/01/26 06:37:33;;;;;;;71.50;33.95;;;;;;;3.22;62.78;100231.88;5093357;28;20111;-47
2022/01/26 06:39:59;;;;;;;69.50;34.60;;;;;;;3.22;63.26;100226.69;5090963;28;20123;-46
2022/01/26 06:42:29;;;;;;;64.68;33.03;;;;;;;3.32;63.80;100228.50;5093185;28;20073;-47
2022/01/26 06:45:13;;;;;;;53.95;32.60;;;;;;;3.42;62.96;100225.19;5093178;28;20024;-48
2022/01/26 06:50:23;;;;;;;54.47;31.08;;;;;;;3.30;63.45;100238.16;5093166;28;20040;-48
2022/01/26 06:52:49;;;;;;;59.58;31.58;;;;;;;3.29;63.33;100239.09;5091779;28;20150;-47
2022/01/26 06:55:17;;;;;;;68.32;44.20;;;;;;;3.22;64.25;100240.50;5092999;28;20115;-47
2022/01/26 06:57:43;;;;;;;78.97;34.90;;;;;;;3.31;64.81;100245.00;5091689;28;20107;-47
2022/01/26 07:00:11;;;;;;;98.18;34.28;;;;;;;3.30;63.29;100250.28;5092907;28;20020;-46
2022/01/26 07:02:37;;;;;;;57.25;31.65;;;;;;;2.98;63.56;100251.75;5092939;28;20490;-47
2022/01/26 07:05:04;;;;;;;46.38;31.20;;;;;;;2.82;63.22;100258.16;5092757;28;20063;-48
2022/01/26 07:07:30;;;;;;;49.53;31.15;;;;;;;2.69;63.86;100261.63;5092808;28;20031;-47
2022/01/26 07:09:55;;;;;;;50.75;33.85;;;;;;;2.63;64.07;100269.03;5092743;28;20505;-48
2022/01/26 07:12:21;;;;;;;45.83;32.38;;;;;;;2.37;63.78;100274.28;5092707;28;20501;-47
2022/01/26 07:22:46;;;;;;;67.20;30.52;;;;;;;2.50;63.99;100269.09;5092626;28;20024;-47
2022/01/26 07:25:12;;;;;;;57.65;32.03;;;;;;;2.55;63.37;100270.41;5092407;28;20020;-47
2022/01/26 07:27:38;;;;;;;105.65;34.55;;;;;;;2.60;63.85;100276.09;5092463;28;20478;-50
2022/01/26 07:30:06;;;;;;;53.97;30.10;;;;;;;2.74;63.17;100282.06;5092356;28;20494;-47
2022/01/26 07:32:34;;;;;;;58.15;31.75;;;;;;;2.79;64.03;100278.19;5092370;28;20077;-47
2022/01/26 07:35:00;;;;;;;69.85;38.30;;;;;;;3.02;63.63;100285.22;5092348;28;20545;-47
2022/01/26 07:37:26;;;;;;;61.75;34.08;;;;;;;3.26;63.62;100277.41;5092344;28;20096;-47
2022/01/26 07:40:07;;;;;;;71.57;31.30;;;;;;;3.50;63.05;100280.78;5091951;28;20047;-47
2022/01/26 07:42:34;;;;;;;127.50;89.30;;;;;;;3.47;62.76;100282.78;5092313;28;20490;-48
2022/01/26 07:45:10;;;;;;;63.08;38.45;;;;;;;3.53;63.04;100283.13;5090716;28;20038;-49
2022/01/26 07:47:37;;;;;;;72.95;33.67;;;;;;;3.59;62.76;100279.25;5092190;28;20032;-48
2022/01/26 07:50:11;;;;;;;58.13;30.30;;;;;;;3.58;63.06;100286.22;5092042;28;20111;-48
2022/01/26 07:52:39;;;;;;;103.60;31.17;;;;;;;3.73;62.81;100279.03;5092109;28;20020;-48
2022/01/26 07:55:08;;;;;;;50.83;29.42;;;;;;;3.72;61.84;100273.94;5092034;28;20115;-47
2022/01/26 07:57:33;;;;;;;54.15;29.42;;;;;;;3.87;62.20;100275.38;5092038;28;20065;-48
2022/01/26 07:59:59;;;;;;;64.93;30.10;;;;;;;4.16;62.88;100277.50;5091988;28;20024;-48
2022/01/26 08:02:25;;;;;;;54.83;28.25;;;;;;;4.24;62.99;100284.69;5091947;28;20498;-47
2022/01/26 08:04:51;;;;;;;57.10;27.98;;;;;;;4.16;61.83;100285.28;5091814;28;20024;-47
2022/01/26 08:07:16;;;;;;;77.50;29.58;;;;;;;3.96;62.25;100284.22;5091916;28;20013;-47
2022/01/26 08:09:44;;;;;;;66.53;28.50;;;;;;;3.71;62.04;100298.28;5091950;28;20024;-48
2022/01/26 08:12:17;;;;;;;372.10;275.83;;;;;;;3.50;62.18;100301.56;5091839;28;20477;-47
2022/01/26 08:14:45;;;;;;;243.63;170.77;;;;;;;3.53;62.35;100306.50;5091903;28;20100;-48
2022/01/26 08:17:14;;;;;;;118.50;39.45;;;;;;;3.63;60.91;100308.41;5090424;28;20024;-48
2022/01/26 08:19:41;;;;;;;192.32;45.97;;;;;;;3.23;60.44;100298.41;5090430;28;20484;-49
2022/01/26 08:22:07;;;;;;;50.10;30.83;;;;;;;2.82;62.21;100294.44;5091706;28;20023;-47
2022/01/26 08:24:32;;;;;;;58.90;34.25;;;;;;;2.97;62.73;100288.97;5092011;28;20530;-47
2022/01/26 08:27:08;;;;;;;47.47;26.85;;;;;;;3.20;62.01;100302.88;5090361;28;20032;-48
2022/01/26 08:32:32;;;;;;;44.60;25.27;;;;;;;3.40;61.25;100298.81;5068198;28;20537;-47
2022/01/26 08:34:58;;;;;;;34.17;24.92;;;;;;;3.62;60.66;100294.59;5091656;28;20035;-47
2022/01/26 08:37:23;;;;;;;42.30;24.25;;;;;;;3.81;60.19;100299.22;5090245;28;20111;-48
2022/01/26 08:39:49;;;;;;;39.35;27.10;;;;;;;3.99;59.53;100297.81;5090048;28;20039;-48
2022/01/26 08:42:14;;;;;;;42.28;25.05;;;;;;;4.18;58.58;100293.78;5091572;28;20024;-46
2022/01/26 08:44:40;;;;;;;41.95;24.92;;;;;;;4.26;58.32;100295.78;5091464;28;20027;-48
2022/01/26 08:47:06;;;;;;;41.30;21.42;;;;;;;4.44;57.80;100299.53;5091606;28;20028;-48
2022/01/26 08:49:32;;;;;;;64.38;24.30;;;;;;;4.47;56.96;100299.31;5091537;28;20016;-46
2022/01/26 08:51:59;;;;;;;50.40;24.45;;;;;;;4.39;56.67;100304.28;5091481;28;20111;-48
2022/01/26 08:54:24;;;;;;;42.42;25.13;;;;;;;4.14;57.01;100301.00;5091501;28;20459;-48
2022/01/26 08:56:51;;;;;;;45.72;24.50;;;;;;;4.09;57.07;100310.94;5091333;28;20054;-47
2022/01/26 08:59:18;;;;;;;49.45;26.50;;;;;;;3.95;57.17;100306.78;5090100;28;20065;-47
2022/01/26 09:01:43;;;;;;;43.80;26.40;;;;;;;3.80;57.43;100310.53;5091371;28;20553;-47
2022/01/26 09:04:09;;;;;;;57.33;28.30;;;;;;;3.82;57.60;100305.25;5092078;28;20115;-46
2022/01/26 09:06:39;;;;;;;41.20;27.50;;;;;;;3.99;57.72;100305.59;5095160;28;20489;-47
2022/01/26 09:09:07;;;;;;;52.30;24.02;;;;;;;4.20;57.33;100303.13;5095124;28;20016;-47
2022/01/26 09:11:37;;;;;;;38.55;24.13;;;;;;;4.17;56.59;100313.75;5095076;28;20024;-47
2022/01/26 09:14:08;;;;;;;47.58;26.27;;;;;;;4.24;56.84;100314.09;5093626;28;20516;-47
2022/01/26 09:16:35;;;;;;;47.40;25.83;;;;;;;4.19;56.44;100321.44;5095039;28;20028;-46
2022/01/26 09:19:19;;;;;;;35.88;23.30;;;;;;;4.36;56.45;100333.13;5094858;28;20107;-47
2022/01/26 09:21:45;;;;;;;42.80;24.98;;;;;;;4.56;55.85;100332.38;5094919;28;20035;-46
2022/01/26 09:24:10;;;;;;;41.20;23.85;;;;;;;4.55;55.21;100330.75;5094751;28;20021;-47
2022/01/26 09:26:36;;;;;;;43.50;24.27;;;;;;;4.55;55.74;100337.72;5093465;28;20115;-46
2022/01/26 09:29:02;;;;;;;51.85;25.80;;;;;;;4.70;55.15;100338.28;5093668;28;20031;-47
2022/01/26 09:31:27;;;;;;;43.45;25.00;;;;;;;4.66;54.93;100334.25;5094587;28;20520;-47
2022/01/26 09:33:53;;;;;;;38.92;25.98;;;;;;;4.78;55.10;100341.91;5094625;28;20016;-47
2022/01/26 09:36:19;;;;;;;38.10;24.63;;;;;;;4.98;54.44;100345.53;5093260;28;20024;-46
2022/01/26 09:38:44;;;;;;;44.25;25.40;;;;;;;5.19;54.37;100345.59;5093140;28;20020;-47
2022/01/26 09:41:10;;;;;;;40.92;26.65;;;;;;;5.27;54.07;100339.75;5054239;28;20060;-47
2022/01/26 09:43:37;;;;;;;41.03;25.15;;;;;;;5.24;53.89;100337.38;5054121;28;20028;-47
2022/01/26 09:46:03;;;;;;;38.90;26.48;;;;;;;5.15;53.62;100335.53;5054096;28;20487;-47
2022/01/26 09:48:29;;;;;;;38.78;26.05;;;;;;;5.21;53.64;100335.03;5054108;28;20024;-47
2022/01/26 09:50:56;;;;;;;49.85;28.25;;;;;;;5.16;53.42;100342.41;5054049;28;20449;-47
2022/01/26 09:53:28;;;;;;;42.05;25.60;;;;;;;5.08;53.21;100347.41;5053983;28;20518;-47
2022/01/26 09:55:54;;;;;;;38.17;25.33;;;;;;;4.96;53.18;100344.00;5054007;28;20025;-47
2022/01/26 09:58:20;;;;;;;44.70;25.45;;;;;;;4.97;53.69;100346.50;5054170;28;20509;-47
2022/01/26 10:00:46;;;;;;;47.50;27.67;;;;;;;5.16;53.94;100342.41;5053855;28;20029;-48
2022/01/26 10:03:14;;;;;;;58.90;28.70;;;;;;;5.31;53.50;100341.16;5053744;28;20077;-48
2022/01/26 10:05:45;;;;;;;39.38;28.20;;;;;;;5.40;53.03;100342.16;5053745;28;20021;-47
2022/01/26 10:19:00;;;;;;;37.67;23.95;;;;;;;5.59;52.34;100337.09;5053539;28;20028;-48
2022/01/26 10:21:27;;;;;;;41.63;25.30;;;;;;;5.46;51.79;100346.88;5053456;28;20060;-47
2022/01/26 10:23:54;;;;;;;36.55;24.27;;;;;;;5.29;52.16;100332.66;5053314;28;20025;-47
2022/01/26 10:26:21;;;;;;;41.05;25.40;;;;;;;5.25;52.25;100340.81;5053478;28;20071;-48
2022/01/26 10:28:51;;;;;;;35.05;21.88;;;;;;;5.36;52.66;100335.56;5053341;28;20017;-48
2022/01/26 10:31:22;;;;;;;38.90;24.75;;;;;;;5.67;51.96;100330.41;5052085;28;20039;-47
2022/01/26 10:34:14;;;;;;;37.42;23.80;;;;;;;5.87;51.50;100331.34;5053353;28;20021;-48
2022/01/26 10:36:43;;;;;;;45.30;24.95;;;;;;;5.88;50.65;100331.22;5053175;28;20025;-47
2022/01/26 10:39:11;;;;;;;41.88;23.05;;;;;;;5.61;51.22;100323.94;5058226;28;20393;-47
2022/01/26 10:41:42;;;;;;;35.78;23.23;;;;;;;5.49;51.69;100320.56;5093346;28;20046;-47
2022/01/26 10:44:08;;;;;;;45.22;25.98;;;;;;;5.37;51.98;100321.59;5093269;28;20035;-47
2022/01/26 10:46:38;;;;;;;37.65;25.20;;;;;;;5.47;52.20;100317.25;5093245;28;20023;-47
2022/01/26 10:49:16;;;;;;;38.03;28.63;;;;;;;5.55;51.41;100320.09;5091898;28;20402;-47
2022/01/26 10:54:27;;;;;;;120.40;105.60;;;;;;;5.49;51.37;100311.94;5093410;28;20032;-47
2022/01/26 10:56:53;;;;;;;107.97;94.05;;;;;;;5.44;52.03;100307.13;5093275;28;20501;-48
2022/01/26 10:59:19;;;;;;;39.33;28.90;;;;;;;5.51;51.92;100310.03;5091673;28;20024;-48
2022/01/26 11:01:46;;;;;;;35.03;24.75;;;;;;;5.64;52.12;100304.66;5091598;28;20024;-46
2022/01/26 11:04:12;;;;;;;44.47;25.00;;;;;;;5.86;51.86;100303.66;5092865;28;20030;-47
2022/01/26 11:06:42;;;;;;;33.35;23.63;;;;;;;5.82;50.94;100299.66;5092866;28;20042;-46
2022/01/26 11:09:13;;;;;;;33.40;23.00;;;;;;;5.86;51.34;100304.47;5092915;28;20032;-48
2022/01/26 11:11:40;;;;;;;32.38;20.77;;;;;;;6.07;50.59;100293.22;5092784;28;20024;-48
2022/01/26 11:14:22;;;;;;;38.33;23.35;;;;;;;5.97;50.48;100290.56;5091669;28;20100;-47
2022/01/26 11:16:54;;;;;;;29.00;21.77;;;;;;;5.82;50.78;100295.28;5092681;28;20436;-47
2022/01/26 11:19:22;;;;;;;37.00;21.50;;;;;;;5.90;50.65;100303.28;5092607;28;20036;-48
2022/01/26 11:21:48;;;;;;;28.77;19.95;;;;;;;6.07;50.68;100293.22;5092497;28;20473;-48
2022/01/26 11:24:20;;;;;;;28.77;20.70;;;;;;;6.23;50.21;100295.34;5091186;28;20051;-47
2022/01/26 11:26:49;;;;;;;34.88;21.80;;;;;;;6.46;49.42;100294.16;5092169;28;20012;-48
2022/01/26 11:29:25;;;;;;;27.60;20.15;;;;;;;6.54;49.28;100296.09;5092484;28;20431;-47
2022/01/26 11:32:33;;;;;;;47.80;37.75;;;;;;;6.52;49.52;100301.47;5092421;28;20024;-47
2022/01/26 11:35:04;;;;;;;35.85;23.17;;;;;;;6.30;49.07;100297.28;5080769;28;20051;-47
2022/01/26 11:37:45;;;;;;;35.88;27.63;;;;;;;5.97;49.94;100293.16;5092370;28;20111;-47
2022/01/26 11:46:11;;;;;;;27.17;20.40;;;;;;;5.87;50.32;100287.06;5049810;28;20059;-48
2022/01/26 11:48:38;;;;;;;30.55;23.13;;;;;;;5.88;49.88;100286.13;5049770;28;20474;-48
2022/01/26 11:51:05;;;;;;;31.55;23.15;;;;;;;5.53;50.91;100279.47;5049735;28;20029;-47
2022/01/26 11:53:31;;;;;;;40.03;24.88;;;;;;;5.49;51.57;100278.09;5049572;28;20055;-48
2022/01/26 11:56:08;;;;;;;34.20;22.48;;;;;;;5.57;51.31;100273.91;5049601;28;20116;-48
2022/01/26 11:58:43;;;;;;;35.25;23.98;;;;;;;5.64;51.61;100268.19;5049660;28;20037;-48
2022/01/26 12:03:46;;;;;;;31.20;23.67;;;;;;;6.19;51.19;100261.69;5049451;28;20055;-48
2022/01/26 12:06:19;;;;;;;33.70;24.80;;;;;;;6.44;50.07;100256.13;5049498;28;20045;-48
2022/01/26 12:08:46;;;;;;;37.00;24.75;;;;;;;6.66;50.13;100249.84;5032778;28;20041;-47
2022/01/26 12:11:14;;;;;;;36.03;24.55;;;;;;;6.74;49.68;100247.38;5032675;28;20106;-48
2022/01/26 12:13:41;;;;;;;36.90;24.95;;;;;;;6.70;49.75;100244.22;5049380;28;20028;-48
2022/01/26 12:16:20;;;;;;;60.80;49.40;;;;;;;6.71;49.42;100238.03;5032634;28;20064;-48
2022/01/26 12:19:12;;;;;;;45.42;37.80;;;;;;;6.80;49.19;100244.22;5070823;28;20059;-47
2022/01/26 12:38:00;;;;;;;43.28;31.05;;;;;;;6.65;48.96;100217.72;5092099;28;20477;-48
2022/01/26 12:43:18;;;;;;;32.80;22.13;;;;;;;6.55;49.83;100227.31;5095577;28;20038;-48
2022/01/26 12:45:47;;;;;;;36.50;26.38;;;;;;;6.67;49.52;100225.41;5095565;28;20024;-48
2022/01/26 12:48:13;;;;;;;41.40;27.58;;;;;;;6.71;49.11;100222.38;5095592;28;20065;-48
2022/01/26 12:50:40;;;;;;;46.17;35.35;;;;;;;6.55;48.47;100212.50;5094194;28;20059;-47
2022/01/26 12:53:07;;;;;;;43.28;33.15;;;;;;;6.31;49.74;100209.44;5094200;28;20035;-47
2022/01/26 12:55:37;;;;;;;53.95;45.28;;;;;;;6.36;49.90;100209.88;5095391;28;20027;-47
2022/01/26 12:58:04;;;;;;;36.72;29.42;;;;;;;6.48;49.86;100207.94;5095479;28;20024;-48
2022/01/26 13:00:40;;;;;;;44.25;30.77;;;;;;;6.40;49.79;100206.03;5094044;28;20028;-47
2022/01/26 13:03:11;;;;;;;74.22;66.22;;;;;;;6.38;50.46;100203.56;5094065;28;20386;-48
2022/01/26 13:05:37;;;;;;;46.60;37.05;;;;;;;6.47;50.74;100207.13;5095242;28;20370;-48
2022/01/26 13:08:04;;;;;;;62.42;49.35;;;;;;;6.57;50.06;100214.97;5095197;28;20031;-47
2022/01/26 13:10:31;;;;;;;43.70;28.20;;;;;;;6.26;50.04;100214.22;5095126;28;20097;-47
2022/01/26 13:13:19;;;;;;;40.85;29.05;;;;;;;6.09;51.17;100224.34;5093725;28;20027;-49
2022/01/26 13:16:05;;;;;;;47.47;28.10;;;;;;;6.19;50.22;100217.38;5095018;28;20461;-47
2022/01/26 13:23:51;;;;;;;37.25;26.85;;;;;;;6.15;51.47;100195.16;5094771;28;20020;-48
2022/01/26 13:26:32;;;;;;;41.05;29.08;;;;;;;6.22;50.99;100198.06;5094851;28;20158;-46
2022/01/26 13:29:59;;;;;;;39.72;28.00;;;;;;;6.32;50.86;100201.50;5094814;28;20485;-47
2022/01/26 13:35:11;;;;;;;40.42;27.35;;;;;;;6.39;50.08;100188.75;5094713;28;20039;-48
2022/01/26 13:40:30;;;;;;;38.83;27.17;;;;;;;5.94;51.58;100183.97;5094249;28;20068;-47
2022/01/26 13:43:41;;;;;;;87.45;58.05;;;;;;;5.95;51.64;100170.81;5094645;28;20028;-47
2022/01/26 13:53:46;;;;;;;35.35;24.52;;;;;;;6.04;52.65;100174.44;5094365;28;20028;-47
2022/01/26 13:56:34;;;;;;;31.98;23.02;;;;;;;6.10;52.21;100167.84;5094288;28;20482;-48
2022/01/26 13:59:10;;;;;;;42.47;26.27;;;;;;;5.81;52.44;100173.78;5094265;28;20016;-46